Flight Track Log - Related Links

Times and Time Zones

All times are in EDT time to prevent confusion due to time zone crossing. See the CDG4837 flight status page for this flight to view local times or setup timezone preferences in your user account.

Time Position Orientation Groundspeed Altitude Reporting Facility
EDT Latitude Longitude Course Direction KTS MPH feet Rate Location/Type
Sat 08:26:00 PM 30.2652 107.6115 57° Northeast  Level Estimated
Sat 08:27:00 PM 30.3193 107.7092 57° Northeast  Level Estimated
Sat 08:28:00 PM 30.3734 107.8069 57° Northeast  Level Estimated
Sat 08:29:00 PM 30.4275 107.9047 57° Northeast  Level Estimated
Sat 08:30:00 PM 30.4814 108.0027 57° Northeast  Level Estimated
Sat 08:31:00 PM 30.5353 108.1008 57° Northeast  Level Estimated
Sat 08:32:00 PM 30.5892 108.1990 57° Northeast  Level Estimated
Sat 08:33:00 PM 30.6429 108.2972 58° Northeast  Level Estimated
Sat 08:34:00 PM 30.6966 108.3957 58° Northeast  Level Estimated
Sat 08:35:00 PM 30.7502 108.4942 58° Northeast  Level Estimated
Sat 08:36:00 PM 30.8037 108.5928 58° Northeast  Level Estimated
Sat 08:37:00 PM 30.8571 108.6915 58° Northeast  Level Estimated
Sat 08:38:00 PM 30.9105 108.7904 58° Northeast  Level Estimated
Sat 08:39:00 PM 30.9638 108.8893 58° Northeast  Level Estimated
Sat 08:40:00 PM 31.0170 108.9884 58° Northeast  Level Estimated
Sat 08:41:00 PM 31.0702 109.0875 58° Northeast  Level Estimated
Sat 08:42:00 PM 31.1232 109.1868 58° Northeast  Level Estimated
Sat 08:43:00 PM 31.1762 109.2862 58° Northeast  Level Estimated
Sat 08:44:00 PM 31.2292 109.3857 58° Northeast  Level Estimated
Sat 08:45:00 PM 31.2820 109.4853 58° Northeast  Level Estimated
Sat 08:46:00 PM 31.3348 109.5850 58° Northeast  Level Estimated
Sat 08:47:00 PM 31.3874 109.6849 58° Northeast  Level Estimated
Sat 08:48:00 PM 31.4401 109.7848 58° Northeast  Level Estimated
Sat 08:49:00 PM 31.4926 109.8849 58° Northeast  Level Estimated
Sat 08:50:00 PM 31.5450 109.9851 58° Northeast  Level Estimated
Sat 08:51:00 PM 31.5974 110.0854 58° Northeast  Level Estimated
Sat 08:52:00 PM 31.6497 110.1858 59° Northeast  Level Estimated
Sat 08:53:00 PM 31.7019 110.2863 59° Northeast  Level Estimated
Sat 08:54:00 PM 31.7541 110.3869 59° Northeast  Level Estimated
Sat 08:55:00 PM 31.8061 110.4876 59° Northeast  Level Estimated
Sat 08:56:00 PM 31.8581 110.5885 59° Northeast  Level Estimated
Sat 08:57:00 PM 31.9100 110.6895 59° Northeast  Level Estimated
Sat 08:58:00 PM 31.9618 110.7905 59° Northeast  Level Estimated
Sat 08:59:00 PM 32.0136 110.8917 59° Northeast  Level Estimated
Sat 09:00:00 PM 32.0652 110.9930 59° Northeast  Level Estimated
Sat 09:01:00 PM 32.1168 111.0945 59° Northeast  Level Estimated
Sat 09:02:00 PM 32.1683 111.1960 59° Northeast  Level Estimated
Sat 09:03:00 PM 32.2197 111.2976 59° Northeast  Level Estimated
Sat 09:04:00 PM 32.2711 111.3994 59° Northeast  Level Estimated
Sat 09:05:00 PM 32.3223 111.5013 59° Northeast  Level Estimated
Sat 09:06:00 PM 32.3735 111.6033 59° Northeast  Level Estimated
Sat 09:07:00 PM 32.4246 111.7054 59° Northeast  Level Estimated
Sat 09:08:00 PM 32.4756 111.8076 59° Northeast  Level Estimated
Sat 09:09:00 PM 32.5265 111.9100 59° Northeast  Level Estimated
Sat 09:10:00 PM 32.5774 112.0124 59° Northeast  Level Estimated
Sat 09:11:00 PM 32.6281 112.1150 60° Northeast  Level Estimated
Sat 09:12:00 PM 32.6788 112.2177 60° Northeast  Level Estimated
Sat 09:13:00 PM 32.7294 112.3205 60° Northeast  Level Estimated
Sat 09:14:00 PM 32.7799 112.4234 60° Northeast  Level Estimated
Sat 09:15:00 PM 32.8303 112.5265 60° Northeast  Level Estimated
Sat 09:16:00 PM 32.8807 112.6296 60° Northeast  Level Estimated
Sat 09:17:00 PM 32.9309 112.7329 60° Northeast  Level Estimated
Sat 09:18:00 PM 32.9811 112.8363 60° Northeast  Level Estimated
Sat 09:19:00 PM 33.0312 112.9398 60° Northeast  Level Estimated
Sat 09:20:00 PM 33.0812 113.0434 60° Northeast  Level Estimated
Sat 09:21:00 PM 33.1311 113.1472 60° Northeast  Level Estimated
Sat 09:22:00 PM 33.1809 113.2511 60° Northeast  Level Estimated
Sat 09:23:00 PM 33.2307 113.3550 60° Northeast  Level Estimated
Sat 09:24:00 PM 33.2803 113.4591 60° Northeast  Level Estimated
Sat 09:25:00 PM 33.3299 113.5634 60° Northeast  Level Estimated
Sat 09:26:00 PM 33.3793 113.6677 60° Northeast  Level Estimated
Sat 09:27:00 PM 33.4287 113.7722 60° Northeast  Level Estimated
Sat 09:28:00 PM 33.4780 113.8767 61° Northeast  Level Estimated
Sat 09:29:00 PM 33.5273 113.9814 61° Northeast  Level Estimated
Sat 09:30:00 PM 33.5764 114.0862 61° Northeast  Level Estimated
Sat 09:31:00 PM 33.6254 114.1912 61° Northeast  Level Estimated
Sat 09:32:00 PM 33.6744 114.2962 61° Northeast  Level Estimated
Sat 09:33:00 PM 33.7232 114.4014 61° Northeast  Level Estimated
Sat 09:34:00 PM 33.7720 114.5067 61° Northeast  Level Estimated
Sat 09:35:00 PM 33.8207 114.6121 61° Northeast  Level Estimated
Sat 09:36:00 PM 33.8693 114.7176 61° Northeast  Level Estimated
Sat 09:37:00 PM 33.9178 114.8233 61° Northeast  Level Estimated
Sat 09:38:00 PM 33.9662 114.9290 61° Northeast  Level Estimated
Sat 09:39:00 PM 34.0145 115.0349 61° Northeast  Level Estimated
Sat 09:40:00 PM 34.0627 115.1409 61° Northeast  Level Estimated
Sat 09:41:00 PM 34.1109 115.2471 61° Northeast  Level Estimated
Sat 09:42:00 PM 34.1589 115.3533 61° Northeast  Level Estimated
Sat 09:43:00 PM 34.2069 115.4597 61° Northeast  Level Estimated
Sat 09:44:00 PM 34.2548 115.5662 61° Northeast  Level Estimated
Sat 09:45:00 PM 34.3025 115.6728 62° Northeast  Level Estimated
Sat 09:46:00 PM 34.3502 115.7795 62° Northeast  Level Estimated
Sat 09:47:00 PM 34.3978 115.8864 62° Northeast  Level Estimated
Sat 09:48:00 PM 34.4453 115.9934 62° Northeast  Level Estimated
Sat 09:49:00 PM 34.4927 116.1005 62° Northeast  Level Estimated
Sat 09:50:00 PM 34.5400 116.2077 62° Northeast  Level Estimated
Sat 09:51:00 PM 34.5872 116.3151 62° Northeast  Level Estimated
Sat 09:52:00 PM 34.6343 116.4225 62° Northeast  Level Estimated
Sat 09:53:00 PM 34.6814 116.5301 62° Northeast  Level Estimated
Sat 09:54:00 PM 34.7283 116.6378 62° Northeast  Level Estimated
Sat 09:55:00 PM 34.7751 116.7457 62° Northeast  Level Estimated
Sat 09:56:00 PM 34.8219 116.8536 62° Northeast  Level Estimated
Sat 09:57:00 PM 34.8685 116.9617 62° Northeast  Level Estimated
Sat 09:58:00 PM 34.9151 117.0699 62° Northeast  Level Estimated
Sat 09:59:00 PM 34.9615 117.1782 62° Northeast  Level Estimated
Sat 10:00:00 PM 35.0079 117.2867 62° Northeast  Level Estimated
Sat 10:01:00 PM 35.0541 117.3952 62° Northeast  Level Estimated
Sat 10:02:00 PM 35.1003 117.5039 63° Northeast  Level Estimated
Sat 10:03:00 PM 35.1464 117.6127 63° Northeast  Level Estimated
Sat 10:04:00 PM 35.1923 117.7217 63° Northeast  Level Estimated
Sat 10:05:00 PM 35.2382 117.8307 63° Northeast  Level Estimated
Sat 10:06:00 PM 35.2840 117.9399 63° Northeast  Level Estimated
Sat 10:07:00 PM 35.3297 118.0492 63° Northeast  Level Estimated
Sat 10:08:00 PM 35.3753 118.1587 63° Northeast  Level Estimated
Sat 10:09:00 PM 35.4207 118.2682 63° Northeast  Level Estimated
Sat 10:10:00 PM 35.4661 118.3779 63° Northeast  Level Estimated
Sat 10:11:00 PM 35.5114 118.4877 63° Northeast  Level Estimated
Sat 10:12:00 PM 35.5566 118.5976 63° Northeast  Level Estimated
Sat 10:13:00 PM 35.6017 118.7077 63° Northeast  Level Estimated
Sat 10:14:00 PM 35.6466 118.8179 63° Northeast  Level Estimated
Sat 10:15:00 PM 35.6915 118.9282 63° Northeast  Level Estimated
Sat 10:16:00 PM 35.7363 119.0386 63° Northeast  Level Estimated
Sat 10:17:00 PM 35.7810 119.1491 63° Northeast  Level Estimated
Sat 10:18:00 PM 35.8256 119.2598 64° Northeast  Level Estimated
Sat 10:19:00 PM 35.8700 119.3706 64° Northeast  Level Estimated
Sat 10:20:00 PM 35.9144 119.4815 64° Northeast  Level Estimated
Sat 10:21:00 PM 35.9587 119.5926 64° Northeast  Level Estimated
Sat 10:22:00 PM 36.0028 119.7037 64° Northeast  Level Estimated
Sat 10:23:00 PM 36.0469 119.8150 64° Northeast  Level Estimated
Sat 10:24:00 PM 36.0909 119.9265 64° Northeast  Level Estimated
Sat 10:25:00 PM 36.1347 120.0380 64° Northeast  Level Estimated
Sat 10:26:00 PM 36.1785 120.1497 64° Northeast  Level Estimated
Sat 10:27:00 PM 36.2221 120.2615 64° Northeast  Level Estimated
Sat 10:28:00 PM 36.2657 120.3734 64° Northeast  Level Estimated
Sat 10:29:00 PM 36.2661 120.3744 64° Northeast  Level Estimated
Sat 10:30:00 PM 36.2661 120.3744 238° Southwest  Level Estimated
Sat 10:31:00 PM 36.2661 120.3744 238° Southwest  Level Estimated
Sat 10:32:00 PM 36.2661 120.3744 238° Southwest  Level Estimated
Sat 10:33:00 PM 36.2661 120.3744 238° Southwest  Level Estimated
Sat 10:34:00 PM 36.2661 120.3744 238° Southwest  Level Estimated
Sat 10:35:00 PM 36.2661 120.3744 238° Southwest  Level Estimated
Sat 10:36:00 PM 36.2661 120.3744 238° Southwest  Level Estimated
Sat 10:37:00 PM 36.2661 120.3744 238° Southwest  Level Estimated
Sat 10:38:00 PM 36.2661 120.3744 238° Southwest  Level Estimated
Sat 10:39:00 PM 36.2661 120.3744 238° Southwest  Level Estimated
Sat 10:40:00 PM 36.2661 120.3744 238° Southwest  Level Estimated
Sat 10:41:00 PM 36.2661 120.3744 238° Southwest  Level Estimated
Sat 10:42:00 PM 36.2661 120.3744 238° Southwest  Level Estimated
Sat 10:43:00 PM 36.2661 120.3744 238° Southwest  Level Estimated
Sat 10:44:00 PM 36.2661 120.3744 238° Southwest  Level Estimated

Login

Don't have an account? Register now (free) for customized features, flight alerts, and more!